createdAt,value
2022-10-31T00:01:48.081Z,16.40
2022-10-31T00:04:14.890Z,16.30
2022-10-31T00:06:41.618Z,16.30
2022-10-31T00:09:10.518Z,16.30
2022-10-31T00:11:37.287Z,16.30
2022-10-31T00:14:04.637Z,16.30
2022-10-31T00:16:31.700Z,16.30
2022-10-31T00:19:00.885Z,16.20
2022-10-31T00:21:28.514Z,16.20
2022-10-31T00:23:55.309Z,16.20
2022-10-31T00:26:22.360Z,16.20
2022-10-31T00:28:49.513Z,16.20
2022-10-31T00:31:16.430Z,16.20
2022-10-31T00:33:43.499Z,16.20
2022-10-31T00:36:14.316Z,16.10
2022-10-31T00:38:41.801Z,16.10
2022-10-31T00:41:08.847Z,16.10
2022-10-31T00:43:35.711Z,16.10
2022-10-31T00:46:02.577Z,16.10
2022-10-31T00:48:30.260Z,16.00
2022-10-31T00:50:57.249Z,16.00
2022-10-31T00:53:24.026Z,16.00
2022-10-31T00:55:51.063Z,16.00
2022-10-31T00:58:17.767Z,16.00
2022-10-31T01:00:46.790Z,16.00
2022-10-31T01:03:16.293Z,15.90
2022-10-31T01:05:43.028Z,15.90
2022-10-31T01:08:09.709Z,15.90
2022-10-31T01:10:36.405Z,15.90
2022-10-31T01:13:03.107Z,15.90
2022-10-31T01:15:30.018Z,15.90
2022-10-31T01:17:56.781Z,15.90
2022-10-31T01:20:23.636Z,15.90
2022-10-31T01:22:50.336Z,15.80
2022-10-31T01:25:17.089Z,15.80
2022-10-31T01:27:43.822Z,15.80
2022-10-31T01:30:11.109Z,15.80
2022-10-31T01:32:37.824Z,15.80
2022-10-31T01:35:04.820Z,15.80
2022-10-31T01:37:31.880Z,15.70
2022-10-31T01:39:58.547Z,15.70
2022-10-31T01:42:25.262Z,15.70
2022-10-31T01:44:56.344Z,15.70
2022-10-31T01:47:38.283Z,15.70
2022-10-31T01:50:12.268Z,15.70
2022-10-31T01:52:43.816Z,15.60
2022-10-31T01:55:19.411Z,15.60
2022-10-31T01:57:49.378Z,15.70
2022-10-31T02:00:16.683Z,15.60
2022-10-31T02:02:45.637Z,15.60
2022-10-31T02:05:18.287Z,15.60
2022-10-31T02:07:55.242Z,15.60
2022-10-31T02:10:24.000Z,15.50
2022-10-31T02:12:58.170Z,15.50
2022-10-31T02:15:25.315Z,15.50
2022-10-31T02:17:52.639Z,15.50
2022-10-31T02:20:22.633Z,15.50
2022-10-31T02:23:22.569Z,15.50
2022-10-31T02:26:27.076Z,15.40
2022-10-31T02:29:24.719Z,15.40
2022-10-31T02:32:04.972Z,15.40
2022-10-31T02:34:49.550Z,15.40
2022-10-31T02:37:47.600Z,15.40
2022-10-31T02:40:17.041Z,15.40
2022-10-31T02:42:56.657Z,15.30
2022-10-31T02:45:36.638Z,15.30
2022-10-31T02:48:13.463Z,15.30
2022-10-31T02:50:44.272Z,15.30
2022-10-31T02:53:14.654Z,15.30
2022-10-31T02:55:48.320Z,15.20
2022-10-31T03:00:52.319Z,15.20
2022-10-31T03:03:31.253Z,15.20
2022-10-31T03:06:14.815Z,15.20
2022-10-31T03:08:49.478Z,15.10
2022-10-31T03:11:19.529Z,15.20
2022-10-31T03:13:57.692Z,15.10
2022-10-31T03:16:31.815Z,15.10
2022-10-31T03:19:13.399Z,15.10
2022-10-31T03:21:52.436Z,15.10
2022-10-31T03:24:22.386Z,15.10
2022-10-31T03:26:54.124Z,15.10
2022-10-31T03:29:23.984Z,15.00
2022-10-31T03:31:56.729Z,15.00
2022-10-31T03:34:23.410Z,15.00
2022-10-31T03:36:53.249Z,15.00
2022-10-31T03:39:22.443Z,15.00
2022-10-31T03:42:19.784Z,15.00
2022-10-31T03:44:58.850Z,15.00
2022-10-31T03:47:25.998Z,15.00
2022-10-31T03:49:52.967Z,15.00
2022-10-31T03:52:23.942Z,14.90
2022-10-31T03:55:08.494Z,14.90
2022-10-31T03:58:15.612Z,14.90
2022-10-31T04:00:45.387Z,14.90
2022-10-31T04:03:16.790Z,14.90
2022-10-31T04:05:46.892Z,14.90
2022-10-31T04:08:18.350Z,14.80
2022-10-31T04:10:48.427Z,14.80
2022-10-31T04:15:54.877Z,14.80
2022-10-31T04:18:23.091Z,14.80
2022-10-31T04:20:50.978Z,14.80
2022-10-31T04:23:23.933Z,14.70
2022-10-31T04:25:50.808Z,14.70
2022-10-31T04:28:20.519Z,14.70
2022-10-31T04:30:47.230Z,14.70
2022-10-31T04:33:13.884Z,14.70
2022-10-31T04:35:41.083Z,14.70
2022-10-31T04:38:07.873Z,14.70
2022-10-31T04:40:34.591Z,14.70
2022-10-31T04:43:01.565Z,14.70
2022-10-31T04:45:28.595Z,14.70
2022-10-31T04:47:55.235Z,14.70
2022-10-31T04:50:21.887Z,14.70
2022-10-31T04:52:48.876Z,14.60
2022-10-31T04:55:16.252Z,14.60
2022-10-31T04:57:48.408Z,14.60
2022-10-31T05:00:18.340Z,14.60
2022-10-31T05:02:49.131Z,14.60
2022-10-31T05:05:20.348Z,14.60
2022-10-31T05:07:48.794Z,14.50
2022-10-31T05:10:19.259Z,14.50
2022-10-31T05:12:49.997Z,14.50
2022-10-31T05:15:17.950Z,14.40
2022-10-31T05:17:45.013Z,14.40
2022-10-31T05:20:13.095Z,14.40
2022-10-31T05:22:47.940Z,14.30
2022-10-31T05:25:15.319Z,14.30
2022-10-31T05:27:47.410Z,14.30
2022-10-31T05:30:17.685Z,14.30
2022-10-31T05:32:46.176Z,14.30
2022-10-31T05:35:16.165Z,14.30
2022-10-31T05:37:43.351Z,14.30
2022-10-31T05:40:13.666Z,14.20
2022-10-31T05:42:41.176Z,14.20
2022-10-31T05:45:13.478Z,14.20
2022-10-31T05:47:40.337Z,14.20
2022-10-31T05:50:08.556Z,14.20
2022-10-31T05:52:35.203Z,14.20
2022-10-31T05:55:01.893Z,14.10
2022-10-31T05:57:30.306Z,14.20
2022-10-31T05:59:57.009Z,14.10
2022-10-31T06:02:23.730Z,14.10
2022-10-31T06:04:50.517Z,14.10
2022-10-31T06:07:17.308Z,14.10
2022-10-31T06:09:44.141Z,14.10
2022-10-31T06:12:10.768Z,14.10
2022-10-31T06:14:37.442Z,14.10
2022-10-31T06:17:04.115Z,14.10
2022-10-31T06:19:30.761Z,14.10
2022-10-31T06:21:57.526Z,14.10
2022-10-31T06:24:24.257Z,14.10
2022-10-31T06:26:51.035Z,14.10
2022-10-31T06:29:17.716Z,14.10
2022-10-31T06:31:44.381Z,14.10
2022-10-31T06:34:11.094Z,14.10
2022-10-31T06:36:37.762Z,14.00
2022-10-31T06:39:04.546Z,14.00
2022-10-31T06:41:31.286Z,14.00
2022-10-31T06:43:57.959Z,14.00
2022-10-31T06:46:24.700Z,14.00
2022-10-31T06:48:51.470Z,14.00
2022-10-31T06:51:18.215Z,14.00
2022-10-31T06:53:44.971Z,14.00
2022-10-31T06:56:11.789Z,14.00
2022-10-31T06:58:38.551Z,14.00
2022-10-31T07:01:05.427Z,13.90
2022-10-31T07:03:32.426Z,13.90
2022-10-31T07:05:59.644Z,14.00
2022-10-31T07:08:26.638Z,14.00
2022-10-31T07:10:55.550Z,14.00
2022-10-31T07:13:26.688Z,14.00
2022-10-31T07:15:55.447Z,14.00
2022-10-31T07:18:22.992Z,14.00
2022-10-31T07:20:49.831Z,14.00
2022-10-31T07:23:16.561Z,14.10
2022-10-31T07:25:43.490Z,14.10
2022-10-31T07:28:10.823Z,14.10
2022-10-31T07:30:38.800Z,14.10
2022-10-31T07:33:06.434Z,14.10
2022-10-31T07:35:33.387Z,14.10
2022-10-31T07:38:09.260Z,14.10
2022-10-31T07:40:36.062Z,14.10
2022-10-31T07:43:03.005Z,14.10
2022-10-31T07:45:29.900Z,14.10
2022-10-31T07:47:57.073Z,14.10
2022-10-31T07:50:29.074Z,14.10
2022-10-31T07:53:01.246Z,14.10
2022-10-31T07:55:28.900Z,14.10
2022-10-31T07:58:01.203Z,14.20
2022-10-31T08:00:28.743Z,14.20
2022-10-31T08:03:16.399Z,14.20
2022-10-31T08:05:45.755Z,14.20
2022-10-31T08:08:13.272Z,14.20
2022-10-31T08:10:41.431Z,14.30
2022-10-31T08:13:13.150Z,14.30
2022-10-31T08:15:42.416Z,14.30
2022-10-31T08:18:14.233Z,14.40
2022-10-31T08:20:41.721Z,14.50
2022-10-31T08:23:09.775Z,14.50
2022-10-31T08:25:40.341Z,14.50
2022-10-31T08:28:07.993Z,14.60
2022-10-31T08:30:37.669Z,14.60
2022-10-31T08:33:12.083Z,14.60
2022-10-31T08:35:39.000Z,14.60
2022-10-31T08:38:05.970Z,14.70
2022-10-31T08:40:33.918Z,14.70
2022-10-31T08:43:05.654Z,14.70
2022-10-31T08:45:34.044Z,14.80
2022-10-31T08:48:02.860Z,14.80
2022-10-31T08:50:32.158Z,14.90
2022-10-31T08:53:08.748Z,14.90
2022-10-31T08:55:36.642Z,14.90
2022-10-31T08:58:05.169Z,14.90
2022-10-31T09:00:32.689Z,15.00
2022-10-31T09:03:01.759Z,15.10
2022-10-31T09:05:29.162Z,15.20
2022-10-31T09:08:00.012Z,15.20
2022-10-31T09:10:27.898Z,15.30
2022-10-31T09:13:02.792Z,15.30
2022-10-31T09:15:29.680Z,15.40
2022-10-31T09:17:56.537Z,15.40
2022-10-31T09:20:23.786Z,15.50
2022-10-31T09:23:01.004Z,15.50
2022-10-31T09:25:28.961Z,15.60
2022-10-31T09:28:00.269Z,15.60
2022-10-31T09:30:30.141Z,15.60
2022-10-31T09:33:01.857Z,15.60
2022-10-31T09:35:29.134Z,15.70
2022-10-31T09:38:15.552Z,15.70
2022-10-31T09:40:59.026Z,15.70
2022-10-31T09:44:08.682Z,15.80
2022-10-31T09:46:58.171Z,15.80
2022-10-31T09:50:09.871Z,15.80
2022-10-31T09:52:41.634Z,15.80
2022-10-31T09:55:22.210Z,15.90
2022-10-31T09:57:49.399Z,15.90
2022-10-31T10:00:22.491Z,15.90
2022-10-31T10:02:57.301Z,16.00
2022-10-31T10:05:55.707Z,16.00
2022-10-31T10:08:33.117Z,16.10
2022-10-31T10:11:06.054Z,16.20
2022-10-31T10:14:00.280Z,16.30
2022-10-31T10:16:45.120Z,16.30
2022-10-31T10:19:49.715Z,16.40
2022-10-31T10:22:51.580Z,16.50
2022-10-31T10:25:26.258Z,16.70
2022-10-31T10:28:28.275Z,16.70
2022-10-31T10:31:04.563Z,16.80
2022-10-31T10:33:39.058Z,16.80
2022-10-31T10:36:15.368Z,16.90
2022-10-31T10:39:00.739Z,17.00
2022-10-31T10:41:34.936Z,17.00
2022-10-31T10:44:02.355Z,17.00
2022-10-31T10:47:06.868Z,17.10
2022-10-31T10:49:52.955Z,17.20
2022-10-31T10:55:12.901Z,17.20
2022-10-31T10:57:45.804Z,17.10
2022-10-31T11:00:26.279Z,17.10
2022-10-31T11:02:54.070Z,17.10
2022-10-31T11:05:25.878Z,17.10
2022-10-31T11:07:53.050Z,17.10
2022-10-31T11:10:19.829Z,17.10
2022-10-31T11:13:13.761Z,17.10
2022-10-31T11:16:11.534Z,17.20
2022-10-31T11:18:44.961Z,17.20
2022-10-31T11:21:26.770Z,17.20
2022-10-31T11:24:09.551Z,17.20
2022-10-31T11:26:40.438Z,17.20
2022-10-31T11:29:22.618Z,17.20
2022-10-31T11:31:56.096Z,17.40
2022-10-31T11:34:46.199Z,17.50
2022-10-31T11:37:19.535Z,17.60
2022-10-31T11:39:54.276Z,17.70
2022-10-31T11:42:30.895Z,17.90
2022-10-31T11:44:58.031Z,18.00
2022-10-31T11:47:29.588Z,18.10
2022-10-31T11:49:58.133Z,18.20
2022-10-31T11:52:27.862Z,18.20
2022-10-31T11:55:14.707Z,18.30
2022-10-31T11:57:49.766Z,18.40
2022-10-31T12:00:25.475Z,18.40
2022-10-31T12:03:04.878Z,18.40
2022-10-31T12:05:33.952Z,18.40
2022-10-31T12:08:04.288Z,18.50
2022-10-31T12:10:43.897Z,18.50
2022-10-31T12:13:29.389Z,18.60
2022-10-31T12:16:18.330Z,18.70
2022-10-31T12:19:02.993Z,18.90
2022-10-31T12:21:54.463Z,19.00
2022-10-31T12:24:39.566Z,19.10
2022-10-31T12:27:30.359Z,19.30
2022-10-31T12:30:09.388Z,19.30
2022-10-31T12:33:15.521Z,19.50
2022-10-31T12:35:42.726Z,19.60
2022-10-31T12:38:33.046Z,19.70
2022-10-31T12:41:10.931Z,19.80
2022-10-31T12:43:43.774Z,19.90
2022-10-31T12:46:43.470Z,19.80
2022-10-31T12:49:43.438Z,19.80
2022-10-31T12:52:37.959Z,19.70
2022-10-31T12:55:10.667Z,19.80
2022-10-31T12:57:46.326Z,19.70
2022-10-31T13:00:18.325Z,19.70
2022-10-31T13:02:56.495Z,19.70
2022-10-31T13:05:31.488Z,19.60
2022-10-31T13:07:58.569Z,19.50
2022-10-31T13:10:47.022Z,19.40
2022-10-31T13:13:25.874Z,19.30
2022-10-31T13:15:57.687Z,19.20
2022-10-31T13:18:39.646Z,19.10
2022-10-31T13:21:12.706Z,19.10
2022-10-31T13:23:56.320Z,19.00
2022-10-31T13:26:41.914Z,19.00
2022-10-31T13:29:44.283Z,18.90
2022-10-31T13:32:12.499Z,18.90
2022-10-31T13:34:44.122Z,18.90
2022-10-31T13:37:22.626Z,18.80
2022-10-31T13:40:01.267Z,18.80
2022-10-31T13:43:02.102Z,18.80
2022-10-31T13:45:29.510Z,18.80
2022-10-31T13:48:18.968Z,18.90
2022-10-31T13:51:00.796Z,19.20
2022-10-31T13:54:01.474Z,19.40
2022-10-31T13:56:36.589Z,19.50
2022-10-31T13:59:15.821Z,19.50
2022-10-31T14:01:54.886Z,19.50
2022-10-31T14:04:29.182Z,19.50
2022-10-31T14:06:58.365Z,19.60
2022-10-31T14:09:35.526Z,19.60
2022-10-31T14:12:24.525Z,19.60
2022-10-31T14:14:55.429Z,19.50
2022-10-31T14:17:33.765Z,19.50
2022-10-31T14:20:23.624Z,19.50
2022-10-31T14:22:50.505Z,19.40
2022-10-31T14:25:37.940Z,19.40
2022-10-31T14:28:21.494Z,19.30
2022-10-31T14:30:56.397Z,19.30
2022-10-31T14:33:26.478Z,19.30
2022-10-31T14:36:06.006Z,19.20
2022-10-31T14:38:44.606Z,19.20
2022-10-31T14:41:33.070Z,19.20
2022-10-31T14:44:18.963Z,19.20
2022-10-31T14:46:54.280Z,19.10
2022-10-31T14:49:49.159Z,19.10
2022-10-31T14:52:18.378Z,19.00
2022-10-31T14:54:51.429Z,19.00
2022-10-31T14:57:23.273Z,18.90
2022-10-31T14:59:59.285Z,18.90
2022-10-31T15:02:40.463Z,18.80
2022-10-31T15:05:12.516Z,18.80
2022-10-31T15:07:53.262Z,18.80
2022-10-31T15:10:33.016Z,18.70
2022-10-31T15:13:23.234Z,18.70
2022-10-31T15:15:56.469Z,18.70
2022-10-31T15:18:27.132Z,18.60
2022-10-31T15:20:56.126Z,18.60
2022-10-31T15:23:40.720Z,18.50
2022-10-31T15:26:07.476Z,18.50
2022-10-31T15:28:34.289Z,18.40
2022-10-31T15:31:03.167Z,18.40
2022-10-31T15:33:46.968Z,18.40
2022-10-31T15:36:27.385Z,18.30
2022-10-31T15:38:59.592Z,18.20
2022-10-31T15:41:36.709Z,18.20
2022-10-31T15:44:28.980Z,18.10
2022-10-31T15:47:09.311Z,18.10
2022-10-31T15:49:43.065Z,18.00
2022-10-31T15:52:12.479Z,18.00
2022-10-31T15:54:54.181Z,17.90
2022-10-31T15:57:21.278Z,17.90
2022-10-31T15:59:49.755Z,17.80
2022-10-31T16:02:22.065Z,17.80
2022-10-31T16:04:58.502Z,17.70
2022-10-31T16:07:26.328Z,17.70
2022-10-31T16:10:04.863Z,17.60
2022-10-31T16:12:38.293Z,17.60
2022-10-31T16:15:07.712Z,17.50
2022-10-31T16:17:34.495Z,17.50
2022-10-31T16:20:04.764Z,17.50
2022-10-31T16:22:35.234Z,17.40
2022-10-31T16:25:12.354Z,17.40
2022-10-31T16:27:40.057Z,17.40
2022-10-31T16:30:50.008Z,17.40
2022-10-31T16:33:37.190Z,17.30
2022-10-31T16:36:35.694Z,17.30
2022-10-31T16:39:03.783Z,17.20
2022-10-31T16:41:30.888Z,17.20
2022-10-31T16:43:57.578Z,17.20
2022-10-31T16:46:28.438Z,17.10
2022-10-31T16:48:55.961Z,17.10
2022-10-31T16:51:23.067Z,17.10
2022-10-31T16:53:53.304Z,17.10
2022-10-31T16:56:28.621Z,17.10
2022-10-31T16:58:55.419Z,17.00
2022-10-31T17:01:22.484Z,17.00
2022-10-31T17:03:49.299Z,16.90
2022-10-31T17:06:16.121Z,17.00
2022-10-31T17:08:42.993Z,16.90
2022-10-31T17:11:17.100Z,16.90
2022-10-31T17:13:43.941Z,16.80
2022-10-31T17:16:13.198Z,16.80
2022-10-31T17:18:39.954Z,16.80
2022-10-31T17:21:06.963Z,16.70
2022-10-31T17:23:33.760Z,16.70
2022-10-31T17:26:00.567Z,16.70
2022-10-31T17:28:27.301Z,16.70
2022-10-31T17:30:59.194Z,16.60
2022-10-31T17:33:26.147Z,16.70
2022-10-31T17:35:52.853Z,16.60
2022-10-31T17:38:19.679Z,16.60
2022-10-31T17:43:19.415Z,16.60
2022-10-31T17:45:46.535Z,16.60
2022-10-31T17:48:13.382Z,16.60
2022-10-31T17:50:40.289Z,16.50
2022-10-31T17:53:07.134Z,16.50
2022-10-31T17:55:37.199Z,16.50
2022-10-31T17:58:04.888Z,16.40
2022-10-31T18:00:31.900Z,16.60
2022-10-31T18:02:59.055Z,16.60
2022-10-31T18:05:26.098Z,16.70
2022-10-31T18:07:53.152Z,16.70
2022-10-31T18:10:19.900Z,16.70
2022-10-31T18:12:48.712Z,16.60
2022-10-31T18:15:16.388Z,16.60
2022-10-31T18:17:43.268Z,16.60
2022-10-31T18:20:10.800Z,16.50
2022-10-31T18:25:03.551Z,16.40
2022-10-31T18:27:30.335Z,16.30
2022-10-31T18:29:57.135Z,16.30
2022-10-31T18:32:24.177Z,16.30
2022-10-31T18:34:50.876Z,16.20
2022-10-31T18:37:17.636Z,16.20
2022-10-31T18:39:44.696Z,16.20
2022-10-31T18:42:11.407Z,16.70
2022-10-31T18:44:38.298Z,16.90
2022-10-31T18:47:05.204Z,17.30
2022-10-31T18:49:33.446Z,17.60
2022-10-31T18:52:00.780Z,17.50
2022-10-31T18:54:27.543Z,17.40
2022-10-31T18:56:54.782Z,17.40
2022-10-31T18:59:21.679Z,17.50
2022-10-31T19:01:48.515Z,17.30
2022-10-31T19:04:15.294Z,17.10
2022-10-31T19:06:42.053Z,17.00
2022-10-31T19:09:11.739Z,16.90
2022-10-31T19:11:39.448Z,16.80
2022-10-31T19:14:08.600Z,16.70
2022-10-31T19:16:35.747Z,16.70
2022-10-31T19:19:02.903Z,16.60
2022-10-31T19:21:33.334Z,16.50
2022-10-31T19:24:00.650Z,16.50
2022-10-31T19:26:28.313Z,16.40
2022-10-31T19:28:56.273Z,16.40
2022-10-31T19:31:23.659Z,16.40
2022-10-31T19:33:50.746Z,16.30
2022-10-31T19:36:19.224Z,16.30
2022-10-31T19:38:49.516Z,16.30
2022-10-31T19:41:18.821Z,16.20
2022-10-31T19:43:45.601Z,16.20
2022-10-31T19:46:22.043Z,16.20
2022-10-31T19:48:55.223Z,16.10
2022-10-31T19:51:22.353Z,16.10
2022-10-31T19:53:52.523Z,16.10
2022-10-31T19:56:21.197Z,16.10
2022-10-31T19:58:48.657Z,16.10
2022-10-31T20:01:17.681Z,16.10
2022-10-31T20:03:45.705Z,16.00
2022-10-31T20:06:18.777Z,16.00
2022-10-31T20:08:45.505Z,16.00
2022-10-31T20:11:12.325Z,16.00
2022-10-31T20:13:39.194Z,16.00
2022-10-31T20:16:11.067Z,16.00
2022-10-31T20:18:38.980Z,15.90
2022-10-31T20:21:11.700Z,15.90
2022-10-31T20:23:39.371Z,15.80
2022-10-31T20:26:08.629Z,15.80
2022-10-31T20:28:39.958Z,15.80
2022-10-31T20:31:14.037Z,15.80
2022-10-31T20:33:41.270Z,15.80
2022-10-31T20:36:09.173Z,15.80
2022-10-31T20:38:41.107Z,15.80
2022-10-31T20:41:10.186Z,15.80
2022-10-31T20:43:38.926Z,15.80
2022-10-31T20:46:08.492Z,15.80
2022-10-31T20:48:35.340Z,15.80
2022-10-31T20:51:05.885Z,15.80
2022-10-31T20:53:33.519Z,15.80
2022-10-31T20:56:08.632Z,15.80
2022-10-31T20:58:36.752Z,15.80
2022-10-31T21:01:05.688Z,15.80
2022-10-31T21:03:32.790Z,15.80
2022-10-31T21:06:01.333Z,15.80
2022-10-31T21:08:29.632Z,15.70
2022-10-31T21:10:56.960Z,15.70
2022-10-31T21:13:24.346Z,15.70
2022-10-31T21:16:02.000Z,15.70
2022-10-31T21:18:28.946Z,15.70
2022-10-31T21:20:55.824Z,15.70
2022-10-31T21:23:22.914Z,15.70
2022-10-31T21:25:49.716Z,15.70
2022-10-31T21:28:16.542Z,15.70
2022-10-31T21:30:48.951Z,15.60
2022-10-31T21:33:15.896Z,15.60
2022-10-31T21:35:49.598Z,15.60
2022-10-31T21:38:16.388Z,15.60
2022-10-31T21:43:14.895Z,15.60
2022-10-31T21:45:41.697Z,15.60
2022-10-31T21:48:08.450Z,15.60
2022-10-31T21:50:35.563Z,15.60
2022-10-31T21:53:22.267Z,15.50
2022-10-31T21:55:48.994Z,15.50
2022-10-31T21:58:15.742Z,15.50
2022-10-31T22:00:42.616Z,15.50
2022-10-31T22:03:09.438Z,15.50
2022-10-31T22:05:36.196Z,15.50
2022-10-31T22:08:03.602Z,15.50
2022-10-31T22:10:30.826Z,15.50
2022-10-31T22:12:57.620Z,15.50
2022-10-31T22:15:24.426Z,15.60
2022-10-31T22:17:51.211Z,15.80
2022-10-31T22:20:18.003Z,15.70
2022-10-31T22:22:47.242Z,15.70
2022-10-31T22:25:14.029Z,15.70
2022-10-31T22:27:41.777Z,15.60
2022-10-31T22:30:09.427Z,15.60
2022-10-31T22:32:36.161Z,15.50
2022-10-31T22:35:02.973Z,15.50
2022-10-31T22:37:29.727Z,15.50
2022-10-31T22:39:56.488Z,15.50
2022-10-31T22:42:23.240Z,15.40
2022-10-31T22:44:49.930Z,15.40
2022-10-31T22:47:16.640Z,15.40
2022-10-31T22:49:43.847Z,15.40
2022-10-31T22:52:10.616Z,15.30
2022-10-31T22:54:37.400Z,15.30
2022-10-31T22:57:04.191Z,15.30
2022-10-31T22:59:30.980Z,15.30
2022-10-31T23:01:57.952Z,15.30
2022-10-31T23:04:24.720Z,15.20
2022-10-31T23:06:51.425Z,15.20
2022-10-31T23:09:18.658Z,15.20
2022-10-31T23:11:46.035Z,15.20
2022-10-31T23:14:18.537Z,15.20
2022-10-31T23:16:53.536Z,15.20
2022-10-31T23:19:27.746Z,15.20
2022-10-31T23:21:59.335Z,15.20
2022-10-31T23:24:29.598Z,15.10
2022-10-31T23:27:10.169Z,15.10
2022-10-31T23:29:49.364Z,15.10
2022-10-31T23:32:35.156Z,15.10
2022-10-31T23:35:10.226Z,15.10
2022-10-31T23:37:38.481Z,15.00
2022-10-31T23:40:06.512Z,15.00
2022-10-31T23:42:33.195Z,15.00
2022-10-31T23:44:59.857Z,15.00
2022-10-31T23:47:26.569Z,14.90
2022-10-31T23:49:53.305Z,14.90
2022-10-31T23:52:20.405Z,14.90
2022-10-31T23:54:47.188Z,14.90
2022-10-31T23:57:15.865Z,14.90
2022-10-31T23:59:42.800Z,14.90
